createdAt,value
2019-02-10T00:00:55.382Z,5.40
2019-02-10T00:02:56.735Z,5.50
2019-02-10T00:04:58.135Z,5.50
2019-02-10T00:06:59.481Z,5.50
2019-02-10T00:09:00.912Z,5.40
2019-02-10T00:11:02.229Z,5.40
2019-02-10T00:13:24.662Z,5.30
2019-02-10T00:15:26.474Z,5.30
2019-02-10T00:17:27.822Z,5.30
2019-02-10T00:19:29.214Z,5.30
2019-02-10T00:21:30.599Z,5.30
2019-02-10T00:23:31.938Z,5.20
2019-02-10T00:25:33.289Z,5.20
2019-02-10T00:27:34.691Z,5.20
2019-02-10T00:29:36.042Z,5.30
2019-02-10T00:31:37.409Z,5.30
2019-02-10T00:33:38.775Z,5.30
2019-02-10T00:35:40.167Z,5.30
2019-02-10T00:37:41.527Z,5.30
2019-02-10T00:39:42.867Z,5.30
2019-02-10T00:41:44.279Z,5.30
2019-02-10T00:43:45.631Z,5.20
2019-02-10T00:45:46.976Z,5.30
2019-02-10T00:47:48.358Z,5.30
2019-02-10T00:49:49.698Z,5.30
2019-02-10T00:51:51.043Z,5.20
2019-02-10T00:53:52.470Z,5.20
2019-02-10T00:55:53.797Z,5.20
2019-02-10T00:57:55.134Z,5.10
2019-02-10T00:59:56.528Z,5.10
2019-02-10T01:01:57.881Z,5.10
2019-02-10T01:03:59.733Z,5.10
2019-02-10T01:06:01.187Z,5.00
2019-02-10T01:08:02.544Z,5.00
2019-02-10T01:10:07.003Z,5.00
2019-02-10T01:12:08.431Z,5.00
2019-02-10T01:14:09.755Z,5.00
2019-02-10T01:16:11.094Z,5.00
2019-02-10T01:18:12.578Z,5.00
2019-02-10T01:20:13.912Z,5.00
2019-02-10T01:22:15.271Z,4.90
2019-02-10T01:24:16.673Z,5.00
2019-02-10T01:26:18.020Z,4.90
2019-02-10T01:28:19.369Z,4.90
2019-02-10T01:30:20.775Z,4.90
2019-02-10T01:32:22.111Z,4.80
2019-02-10T01:34:23.475Z,4.80
2019-02-10T01:36:24.851Z,4.80
2019-02-10T01:38:26.250Z,4.80
2019-02-10T01:40:27.631Z,4.80
2019-02-10T01:42:28.980Z,4.80
2019-02-10T01:44:30.311Z,4.80
2019-02-10T01:46:31.988Z,4.80
2019-02-10T01:48:33.310Z,4.90
2019-02-10T01:50:34.650Z,4.90
2019-02-10T01:52:36.054Z,4.80
2019-02-10T01:54:37.415Z,4.80
2019-02-10T01:56:38.752Z,4.70
2019-02-10T01:58:40.117Z,4.70
2019-02-10T02:00:42.250Z,4.70
2019-02-10T02:02:43.689Z,4.60
2019-02-10T02:04:45.021Z,4.60
2019-02-10T02:06:46.407Z,4.60
2019-02-10T02:08:48.314Z,4.60
2019-02-10T02:10:49.650Z,4.50
2019-02-10T02:12:51.034Z,4.40
2019-02-10T02:14:52.405Z,4.40
2019-02-10T02:16:53.756Z,4.40
2019-02-10T02:18:55.191Z,4.40
2019-02-10T02:20:56.712Z,4.40
2019-02-10T02:22:58.069Z,4.40
2019-02-10T02:24:59.423Z,4.40
2019-02-10T02:27:01.416Z,4.40
2019-02-10T02:29:02.756Z,4.40
2019-02-10T02:31:04.117Z,4.40
2019-02-10T02:33:05.514Z,4.30
2019-02-10T02:35:07.056Z,4.30
2019-02-10T02:37:08.484Z,4.30
2019-02-10T02:39:09.908Z,4.30
2019-02-10T02:41:11.267Z,4.30
2019-02-10T02:43:12.622Z,4.30
2019-02-10T02:45:14.006Z,4.20
2019-02-10T02:47:15.359Z,4.20
2019-02-10T02:49:16.721Z,4.20
2019-02-10T02:51:18.139Z,4.20
2019-02-10T02:53:19.487Z,4.20
2019-02-10T02:55:20.843Z,4.20
2019-02-10T02:57:22.270Z,4.20
2019-02-10T02:59:23.641Z,4.20
2019-02-10T03:01:24.984Z,4.20
2019-02-10T03:03:26.713Z,4.10
2019-02-10T03:05:28.097Z,4.10
2019-02-10T03:07:29.456Z,4.10
2019-02-10T03:09:31.179Z,4.00
2019-02-10T03:11:32.496Z,4.00
2019-02-10T03:13:33.846Z,4.00
2019-02-10T03:15:35.255Z,4.00
2019-02-10T03:17:36.654Z,3.90
2019-02-10T03:19:38.126Z,3.90
2019-02-10T03:21:39.728Z,3.90
2019-02-10T03:23:41.069Z,3.90
2019-02-10T03:25:42.435Z,4.00
2019-02-10T03:27:43.865Z,3.90
2019-02-10T03:29:45.233Z,3.90
2019-02-10T03:31:46.638Z,3.90
2019-02-10T03:33:48.142Z,4.00
2019-02-10T03:35:49.690Z,4.00
2019-02-10T03:37:51.093Z,4.00
2019-02-10T03:39:52.431Z,4.00
2019-02-10T03:41:53.847Z,4.00
2019-02-10T03:43:55.213Z,4.00
2019-02-10T03:45:56.559Z,4.00
2019-02-10T03:47:57.973Z,3.90
2019-02-10T03:49:59.405Z,3.90
2019-02-10T03:52:00.758Z,3.90
2019-02-10T03:54:02.129Z,3.80
2019-02-10T03:56:03.681Z,3.80
2019-02-10T03:58:05.008Z,3.80
2019-02-10T04:00:10.689Z,3.80
2019-02-10T04:02:12.096Z,3.80
2019-02-10T04:04:13.446Z,3.80
2019-02-10T04:06:14.813Z,3.80
2019-02-10T04:08:16.418Z,3.80
2019-02-10T04:10:17.787Z,3.80
2019-02-10T04:12:19.159Z,3.90
2019-02-10T04:14:20.577Z,3.90
2019-02-10T04:16:21.975Z,3.90
2019-02-10T04:18:23.360Z,3.90
2019-02-10T04:20:24.857Z,4.00
2019-02-10T04:22:26.229Z,4.00
2019-02-10T04:24:27.636Z,4.10
2019-02-10T04:26:29.007Z,4.10
2019-02-10T04:28:31.364Z,4.10
2019-02-10T04:30:32.736Z,4.10
2019-02-10T04:32:34.166Z,4.00
2019-02-10T04:34:35.536Z,4.10
2019-02-10T04:36:36.914Z,4.10
2019-02-10T04:38:38.309Z,4.10
2019-02-10T04:40:39.656Z,4.10
2019-02-10T04:42:41.042Z,4.10
2019-02-10T04:44:42.404Z,4.10
2019-02-10T04:46:43.782Z,4.10
2019-02-10T04:48:45.163Z,4.20
2019-02-10T04:50:46.566Z,4.20
2019-02-10T04:52:47.941Z,4.20
2019-02-10T04:54:49.316Z,4.20
2019-02-10T04:56:50.696Z,4.10
2019-02-10T04:58:52.100Z,4.20
2019-02-10T05:00:53.596Z,4.20
2019-02-10T05:02:54.921Z,4.20
2019-02-10T05:04:56.290Z,4.30
2019-02-10T05:06:57.676Z,4.30
2019-02-10T05:08:59.074Z,4.20
2019-02-10T05:11:00.467Z,4.20
2019-02-10T05:13:02.154Z,4.20
2019-02-10T05:15:05.460Z,4.30
2019-02-10T05:17:06.898Z,4.30
2019-02-10T05:19:08.258Z,4.30
2019-02-10T05:21:09.677Z,4.30
2019-02-10T05:23:11.269Z,4.30
2019-02-10T05:25:12.642Z,4.30
2019-02-10T05:27:14.313Z,4.30
2019-02-10T05:29:15.700Z,4.30
2019-02-10T05:31:17.142Z,4.30
2019-02-10T05:33:18.529Z,4.30
2019-02-10T05:35:19.886Z,4.30
2019-02-10T05:37:21.254Z,4.40
2019-02-10T05:39:22.617Z,4.30
2019-02-10T05:41:24.029Z,4.40
2019-02-10T05:43:25.455Z,4.40
2019-02-10T05:45:26.878Z,4.50
2019-02-10T05:47:28.448Z,4.40
2019-02-10T05:49:29.801Z,4.50
2019-02-10T05:51:31.182Z,4.40
2019-02-10T05:53:32.576Z,4.40
2019-02-10T05:55:33.954Z,4.40
2019-02-10T05:57:35.323Z,4.40
2019-02-10T05:59:36.701Z,4.40
2019-02-10T06:02:03.155Z,4.40
2019-02-10T06:04:04.511Z,4.40
2019-02-10T06:06:05.880Z,4.50
2019-02-10T06:08:13.132Z,4.50
2019-02-10T06:10:10.543Z,4.60
2019-02-10T06:12:12.204Z,4.60
2019-02-10T06:14:13.580Z,4.60
2019-02-10T06:16:14.958Z,4.60
2019-02-10T06:18:16.338Z,4.60
2019-02-10T06:20:17.819Z,4.70
2019-02-10T06:22:19.221Z,4.70
2019-02-10T06:24:20.665Z,4.70
2019-02-10T06:26:22.002Z,4.80
2019-02-10T06:28:23.374Z,4.80
2019-02-10T06:30:24.771Z,4.90
2019-02-10T06:32:26.208Z,4.80
2019-02-10T06:34:27.581Z,4.90
2019-02-10T06:36:28.945Z,4.80
2019-02-10T06:38:30.363Z,4.80
2019-02-10T06:40:31.732Z,4.90
2019-02-10T06:42:33.100Z,4.90
2019-02-10T06:44:34.501Z,4.90
2019-02-10T06:46:35.950Z,4.90
2019-02-10T06:48:37.312Z,5.00
2019-02-10T06:50:38.699Z,5.00
2019-02-10T06:52:40.084Z,5.10
2019-02-10T06:54:46.301Z,5.10
2019-02-10T06:56:47.659Z,5.10
2019-02-10T06:58:49.056Z,5.10
2019-02-10T07:00:55.570Z,5.10
2019-02-10T07:03:35.324Z,5.20
2019-02-10T07:05:36.682Z,5.20
2019-02-10T07:07:38.086Z,5.30
2019-02-10T07:09:39.453Z,5.30
2019-02-10T07:11:40.878Z,5.30
2019-02-10T07:13:52.399Z,5.30
2019-02-10T07:16:33.593Z,5.30
2019-02-10T07:19:31.450Z,5.30
2019-02-10T07:21:33.242Z,5.30
2019-02-10T07:24:22.866Z,5.30
2019-02-10T07:26:57.273Z,5.30
2019-02-10T07:28:58.775Z,5.40
2019-02-10T07:31:00.132Z,5.40
2019-02-10T07:33:04.780Z,5.40
2019-02-10T07:35:35.722Z,5.50
2019-02-10T07:37:42.799Z,5.50
2019-02-10T07:40:07.730Z,5.50
2019-02-10T07:42:41.172Z,5.50
2019-02-10T07:45:09.247Z,5.50
2019-02-10T07:47:36.358Z,5.40
2019-02-10T07:50:05.195Z,5.40
2019-02-10T07:52:33.563Z,5.30
2019-02-10T07:54:52.446Z,5.30
2019-02-10T07:57:05.589Z,5.30
2019-02-10T07:59:26.988Z,5.30
2019-02-10T08:01:58.767Z,5.30
2019-02-10T08:04:20.522Z,5.30
2019-02-10T08:06:59.784Z,5.20
2019-02-10T08:09:15.886Z,5.20
2019-02-10T08:11:43.510Z,5.10
2019-02-10T08:14:16.545Z,5.10
2019-02-10T08:16:46.549Z,5.10
2019-02-10T08:19:11.371Z,5.10
2019-02-10T08:21:49.267Z,5.10
2019-02-10T08:24:29.074Z,5.10
2019-02-10T08:26:51.603Z,5.10
2019-02-10T08:28:58.701Z,5.10
2019-02-10T08:31:23.978Z,5.10
2019-02-10T08:34:25.050Z,5.10
2019-02-10T08:37:08.188Z,5.10
2019-02-10T08:39:51.284Z,5.10
2019-02-10T08:42:34.334Z,5.10
2019-02-10T08:45:17.444Z,5.00
2019-02-10T08:48:00.520Z,5.00
2019-02-10T08:50:43.665Z,5.00
2019-02-10T08:53:24.883Z,5.00
2019-02-10T08:55:46.791Z,5.00
2019-02-10T08:58:08.152Z,5.00
2019-02-10T09:00:29.834Z,5.00
2019-02-10T09:02:51.114Z,5.00
2019-02-10T09:05:32.306Z,5.10
2019-02-10T09:07:53.555Z,5.10
2019-02-10T09:10:14.808Z,5.00
2019-02-10T09:12:36.143Z,5.10
2019-02-10T09:14:57.414Z,5.10
2019-02-10T09:17:12.523Z,5.10
2019-02-10T09:19:33.890Z,5.10
2019-02-10T09:21:55.096Z,5.10
2019-02-10T09:24:16.421Z,5.10
2019-02-10T09:26:37.691Z,5.20
2019-02-10T09:28:58.931Z,5.20
2019-02-10T09:31:20.273Z,5.20
2019-02-10T09:33:41.524Z,5.30
2019-02-10T09:36:02.786Z,5.30
2019-02-10T09:40:46.077Z,5.30
2019-02-10T09:43:07.320Z,5.40
2019-02-10T09:45:28.651Z,5.50
2019-02-10T09:50:33.466Z,5.60
2019-02-10T09:52:54.709Z,5.60
2019-02-10T09:55:15.988Z,5.70
2019-02-10T09:57:37.325Z,5.70
2019-02-10T09:59:58.568Z,5.80
2019-02-10T10:02:19.842Z,5.80
2019-02-10T10:04:32.405Z,5.80
2019-02-10T10:06:53.667Z,5.80
2019-02-10T10:09:19.275Z,5.90
2019-02-10T10:11:58.183Z,5.90
2019-02-10T10:14:19.837Z,5.90
2019-02-10T10:16:41.178Z,5.90
2019-02-10T10:19:02.417Z,5.90
2019-02-10T10:21:23.868Z,6.00
2019-02-10T10:23:45.187Z,6.00
2019-02-10T10:26:06.423Z,6.00
2019-02-10T10:28:27.762Z,6.00
2019-02-10T10:30:49.009Z,6.00
2019-02-10T10:33:10.320Z,6.00
2019-02-10T10:35:31.582Z,6.10
2019-02-10T10:37:52.904Z,6.10
2019-02-10T10:40:14.175Z,6.10
2019-02-10T10:42:35.450Z,6.20
2019-02-10T10:44:56.762Z,6.20
2019-02-10T10:47:18.018Z,6.20
2019-02-10T10:49:39.346Z,6.30
2019-02-10T10:52:00.631Z,6.30
2019-02-10T10:54:21.940Z,6.30
2019-02-10T10:56:43.267Z,6.40
2019-02-10T10:59:04.534Z,6.40
2019-02-10T11:01:25.792Z,6.40
2019-02-10T11:03:47.109Z,6.40
2019-02-10T11:06:02.100Z,6.40
2019-02-10T11:08:23.376Z,6.40
2019-02-10T11:10:44.840Z,6.50
2019-02-10T11:13:06.093Z,6.50
2019-02-10T11:15:27.372Z,6.60
2019-02-10T11:17:48.686Z,6.60
2019-02-10T11:20:10.501Z,6.60
2019-02-10T11:22:31.715Z,6.70
2019-02-10T11:24:53.052Z,6.70
2019-02-10T11:27:14.298Z,6.70
2019-02-10T11:29:35.559Z,6.70
2019-02-10T11:31:56.866Z,6.70
2019-02-10T11:33:58.245Z,6.70
2019-02-10T11:36:19.520Z,6.70
2019-02-10T11:38:40.881Z,6.80
2019-02-10T11:41:02.125Z,6.80
2019-02-10T11:43:23.385Z,6.80
2019-02-10T11:45:44.879Z,6.80
2019-02-10T11:48:07.842Z,6.80
2019-02-10T11:50:49.261Z,6.80
2019-02-10T11:53:10.532Z,6.80
2019-02-10T11:55:31.772Z,6.80
2019-02-10T11:57:53.094Z,6.80
2019-02-10T12:00:15.573Z,6.80
2019-02-10T12:02:38.222Z,6.90
2019-02-10T12:05:20.112Z,6.90
2019-02-10T12:07:35.477Z,6.90
2019-02-10T12:09:56.724Z,6.90
2019-02-10T12:12:18.244Z,6.90
2019-02-10T12:14:39.582Z,6.90
2019-02-10T12:17:00.856Z,7.00
2019-02-10T12:19:22.163Z,7.00
2019-02-10T12:21:43.599Z,7.00
2019-02-10T12:24:04.864Z,7.00
2019-02-10T12:26:26.131Z,7.00
2019-02-10T12:28:47.449Z,7.00
2019-02-10T12:31:08.687Z,7.00
2019-02-10T12:33:30.045Z,7.10
2019-02-10T12:35:58.189Z,7.10
2019-02-10T12:38:34.516Z,7.10
2019-02-10T12:40:55.842Z,7.10
2019-02-10T12:43:17.154Z,7.10
2019-02-10T12:45:38.419Z,7.10
2019-02-10T12:47:39.920Z,7.10
2019-02-10T12:50:01.204Z,7.10
2019-02-10T12:52:22.834Z,7.20
2019-02-10T12:54:37.297Z,7.20
2019-02-10T12:56:58.565Z,7.20
2019-02-10T12:59:19.890Z,7.20
2019-02-10T13:01:41.154Z,7.20
2019-02-10T13:04:02.539Z,7.20
2019-02-10T13:06:23.955Z,7.20
2019-02-10T13:08:45.206Z,7.20
2019-02-10T13:11:06.472Z,7.20
2019-02-10T13:13:27.784Z,7.20
2019-02-10T13:15:49.025Z,7.20
2019-02-10T13:18:10.365Z,7.20
2019-02-10T13:20:53.405Z,7.20
2019-02-10T13:23:14.697Z,7.20
2019-02-10T13:25:36.285Z,7.20
2019-02-10T13:27:57.552Z,7.20
2019-02-10T13:30:18.809Z,7.20
2019-02-10T13:32:40.441Z,7.20
2019-02-10T13:35:01.810Z,7.20
2019-02-10T13:37:23.262Z,7.20
2019-02-10T13:39:44.578Z,7.20
2019-02-10T13:42:05.850Z,7.20
2019-02-10T13:44:27.285Z,7.20
2019-02-10T13:46:48.606Z,7.10
2019-02-10T13:49:10.079Z,7.20
2019-02-10T13:51:31.455Z,7.10
2019-02-10T13:53:52.718Z,7.10
2019-02-10T13:56:07.725Z,7.10
2019-02-10T13:58:29.063Z,7.20
2019-02-10T14:00:30.455Z,7.10
2019-02-10T14:02:51.715Z,7.20
2019-02-10T14:05:13.132Z,7.20
2019-02-10T14:07:34.441Z,7.10
2019-02-10T14:09:55.705Z,7.10
2019-02-10T14:12:16.956Z,7.10
2019-02-10T14:14:38.276Z,7.20
2019-02-10T14:16:59.529Z,7.20
2019-02-10T14:19:20.803Z,7.10
2019-02-10T14:21:42.210Z,7.20
2019-02-10T14:24:03.459Z,7.20
2019-02-10T14:26:24.712Z,7.20
2019-02-10T14:28:46.146Z,7.20
2019-02-10T14:31:07.386Z,7.20
2019-02-10T14:33:28.646Z,7.20
2019-02-10T14:36:09.969Z,7.20
2019-02-10T14:38:36.420Z,7.20
2019-02-10T14:41:14.341Z,7.20
2019-02-10T14:43:35.583Z,7.20
2019-02-10T14:45:56.841Z,7.20
2019-02-10T14:48:18.160Z,7.20
2019-02-10T14:50:39.414Z,7.20
2019-02-10T14:53:00.747Z,7.20
2019-02-10T14:55:22.015Z,7.20
2019-02-10T14:57:23.472Z,7.20
2019-02-10T14:59:45.069Z,7.20
2019-02-10T15:02:06.340Z,7.20
2019-02-10T15:04:27.607Z,7.30
2019-02-10T15:06:48.922Z,7.30
2019-02-10T15:09:10.385Z,7.30
2019-02-10T15:11:31.847Z,7.30
2019-02-10T15:13:53.159Z,7.30
2019-02-10T15:16:14.412Z,7.30
2019-02-10T15:18:35.748Z,7.30
2019-02-10T15:20:56.997Z,7.30
2019-02-10T15:23:18.247Z,7.30
2019-02-10T15:25:39.601Z,7.30
2019-02-10T15:28:00.878Z,7.30
2019-02-10T15:30:22.187Z,7.30
2019-02-10T15:32:43.614Z,7.30
2019-02-10T15:35:04.981Z,7.40
2019-02-10T15:37:26.252Z,7.50
2019-02-10T15:39:47.575Z,7.50
2019-02-10T15:42:09.613Z,7.40
2019-02-10T15:44:51.955Z,7.40
2019-02-10T15:47:13.323Z,7.40
2019-02-10T15:49:34.551Z,7.40
2019-02-10T15:51:55.888Z,7.40
2019-02-10T15:54:17.161Z,7.40
2019-02-10T15:56:18.548Z,7.50
2019-02-10T15:58:33.353Z,7.40
2019-02-10T16:00:54.622Z,7.40
2019-02-10T16:03:15.878Z,7.40
2019-02-10T16:08:04.664Z,7.50
2019-02-10T16:10:26.089Z,7.50
2019-02-10T16:12:47.357Z,7.60
2019-02-10T16:18:18.931Z,7.80
2019-02-10T16:20:40.203Z,7.70
2019-02-10T16:23:01.462Z,7.70
2019-02-10T16:25:22.811Z,7.70
2019-02-10T16:27:44.102Z,7.70
2019-02-10T16:30:27.290Z,7.70
2019-02-10T16:32:50.218Z,7.70
2019-02-10T16:35:31.802Z,7.70
2019-02-10T16:37:53.067Z,7.70
2019-02-10T16:40:34.276Z,7.70
2019-02-10T16:42:55.542Z,7.70
2019-02-10T16:44:56.930Z,7.80
2019-02-10T16:47:18.250Z,7.80
2019-02-10T16:49:39.587Z,7.90
2019-02-10T16:52:00.848Z,7.90
2019-02-10T16:54:22.323Z,7.90
2019-02-10T16:56:43.583Z,8.00
2019-02-10T16:59:04.840Z,8.00
2019-02-10T17:01:26.161Z,8.10
2019-02-10T17:03:47.428Z,8.10
2019-02-10T17:06:08.690Z,8.10
2019-02-10T17:08:29.998Z,8.20
2019-02-10T17:10:51.273Z,8.10
2019-02-10T17:13:12.534Z,8.20
2019-02-10T17:15:33.872Z,8.20
2019-02-10T17:17:35.247Z,8.30
2019-02-10T17:19:56.515Z,8.30
2019-02-10T17:22:17.834Z,8.30
2019-02-10T17:24:39.093Z,8.40
2019-02-10T17:27:00.364Z,8.50
2019-02-10T17:29:01.949Z,8.50
2019-02-10T17:31:23.217Z,8.50
2019-02-10T17:33:44.479Z,8.50
2019-02-10T17:36:05.800Z,8.50
2019-02-10T17:38:27.072Z,8.50
2019-02-10T17:41:10.165Z,8.70
2019-02-10T17:43:31.410Z,8.60
2019-02-10T17:45:52.690Z,8.60
2019-02-10T17:48:14.323Z,8.60
2019-02-10T17:50:30.212Z,8.70
2019-02-10T17:52:32.206Z,8.80
2019-02-10T17:55:14.924Z,8.90
2019-02-10T17:57:36.193Z,8.90
2019-02-10T17:59:57.403Z,8.90
2019-02-10T18:02:18.770Z,8.80
2019-02-10T18:04:40.073Z,8.90
2019-02-10T18:07:01.349Z,9.00
2019-02-10T18:09:22.616Z,9.00
2019-02-10T18:11:43.942Z,9.00
2019-02-10T18:25:34.818Z,8.90
2019-02-10T18:28:15.973Z,9.00
2019-02-10T18:36:35.150Z,8.90
2019-02-10T18:39:16.288Z,8.90
2019-02-10T18:44:46.114Z,8.90
2019-02-10T18:52:38.228Z,9.10
2019-02-10T18:55:19.528Z,9.10
2019-02-10T18:58:00.743Z,9.20
2019-02-10T19:00:42.142Z,9.30
2019-02-10T19:09:03.747Z,9.20
2019-02-10T19:11:47.318Z,9.30
2019-02-10T19:14:07.335Z,9.30
2019-02-10T19:16:33.355Z,9.30
2019-02-10T19:19:19.666Z,9.30
2019-02-10T19:21:25.966Z,9.20
2019-02-10T19:23:40.014Z,9.20
2019-02-10T19:25:50.943Z,9.10
2019-02-10T19:27:54.244Z,9.10
2019-02-10T19:29:57.612Z,9.00
2019-02-10T19:32:10.103Z,9.00
2019-02-10T19:34:16.382Z,8.90
2019-02-10T19:36:25.381Z,8.90
2019-02-10T19:38:28.659Z,8.90
2019-02-10T19:40:40.637Z,8.90
2019-02-10T19:42:46.903Z,8.90
2019-02-10T19:45:01.935Z,8.80
2019-02-10T19:47:05.267Z,8.80
2019-02-10T19:49:11.256Z,8.70
2019-02-10T19:51:20.542Z,8.70
2019-02-10T19:53:24.014Z,8.60
2019-02-10T19:55:33.843Z,8.60
2019-02-10T19:57:53.783Z,8.60
2019-02-10T20:00:06.025Z,8.70
2019-02-10T20:02:09.458Z,8.60
2019-02-10T20:04:31.610Z,8.60
2019-02-10T20:06:46.772Z,8.60
2019-02-10T20:08:53.379Z,8.60
2019-02-10T20:11:05.440Z,8.50
2019-02-10T20:13:23.681Z,8.40
2019-02-10T20:15:27.043Z,8.40
2019-02-10T20:17:30.333Z,8.40
2019-02-10T20:19:51.888Z,8.40
2019-02-10T20:21:58.134Z,8.40
2019-02-10T20:24:10.128Z,8.40
2019-02-10T20:26:29.983Z,8.40
2019-02-10T20:28:45.610Z,8.40
2019-02-10T20:30:51.768Z,8.30
2019-02-10T20:33:00.989Z,8.30
2019-02-10T20:35:04.911Z,8.30
2019-02-10T20:37:13.958Z,8.30
2019-02-10T20:39:20.123Z,8.20
2019-02-10T20:41:23.448Z,8.10
2019-02-10T20:43:32.963Z,8.10
2019-02-10T20:45:42.247Z,8.20
2019-02-10T20:47:48.493Z,8.10
2019-02-10T20:50:00.920Z,8.10
2019-02-10T20:52:10.150Z,8.10
2019-02-10T20:54:29.688Z,8.10
2019-02-10T20:56:35.560Z,8.10
2019-02-10T20:58:47.906Z,8.20
2019-02-10T21:00:51.278Z,8.10
2019-02-10T21:03:03.444Z,8.10
2019-02-10T21:05:06.793Z,8.00
2019-02-10T21:07:10.063Z,8.10
2019-02-10T21:09:13.352Z,8.10
2019-02-10T21:11:16.856Z,8.10
2019-02-10T21:13:38.362Z,8.00
2019-02-10T21:15:48.127Z,7.90
2019-02-10T21:17:51.875Z,7.80
2019-02-10T21:20:11.863Z,7.70
2019-02-10T21:22:18.006Z,7.60
2019-02-10T21:24:21.351Z,7.60
2019-02-10T21:26:30.571Z,7.50
2019-02-10T21:28:36.808Z,7.50
2019-02-10T21:31:00.361Z,7.40
2019-02-10T21:33:06.574Z,7.50
2019-02-10T21:35:09.973Z,7.40
2019-02-10T21:37:13.549Z,7.20
2019-02-10T21:39:22.614Z,7.20
2019-02-10T21:41:28.810Z,7.20
2019-02-10T21:43:34.966Z,7.20
2019-02-10T21:45:40.927Z,7.20
2019-02-10T21:47:44.247Z,7.20
2019-02-10T21:49:45.711Z,7.20
2019-02-10T21:51:47.216Z,7.20
2019-02-10T21:53:48.611Z,7.20
2019-02-10T21:55:51.099Z,7.10
2019-02-10T21:57:52.510Z,7.10
2019-02-10T21:59:53.869Z,7.00
2019-02-10T22:01:55.288Z,7.10
2019-02-10T22:03:56.706Z,7.00
2019-02-10T22:05:58.380Z,7.00
2019-02-10T22:07:59.765Z,7.00
2019-02-10T22:10:04.963Z,7.10
2019-02-10T22:12:06.393Z,7.10
2019-02-10T22:14:07.834Z,7.10
2019-02-10T22:16:09.195Z,7.00
2019-02-10T22:18:10.674Z,7.00
2019-02-10T22:20:12.407Z,7.00
2019-02-10T22:22:13.813Z,7.00
2019-02-10T22:24:15.220Z,7.00
2019-02-10T22:26:16.601Z,6.90
2019-02-10T22:28:18.031Z,6.90
2019-02-10T22:30:19.436Z,6.80
2019-02-10T22:32:20.831Z,6.80
2019-02-10T22:34:22.252Z,6.80
2019-02-10T22:36:23.818Z,6.80
2019-02-10T22:38:25.203Z,6.70
2019-02-10T22:40:26.606Z,6.70
2019-02-10T22:42:28.026Z,6.60
2019-02-10T22:44:29.399Z,6.70
2019-02-10T22:46:30.785Z,6.60
2019-02-10T22:48:32.243Z,6.70
2019-02-10T22:50:33.640Z,6.70
2019-02-10T22:52:35.069Z,6.70
2019-02-10T22:54:36.712Z,6.70
2019-02-10T22:56:38.141Z,6.70
2019-02-10T22:58:39.527Z,6.70
2019-02-10T23:00:51.516Z,6.60
2019-02-10T23:02:53.183Z,6.60
2019-02-10T23:04:54.769Z,6.70
2019-02-10T23:06:56.225Z,6.60
2019-02-10T23:08:57.616Z,6.50
2019-02-10T23:10:58.999Z,6.50
2019-02-10T23:13:00.705Z,6.60
2019-02-10T23:15:04.234Z,6.60
2019-02-10T23:17:05.621Z,6.60
2019-02-10T23:19:07.063Z,6.60
2019-02-10T23:21:08.474Z,6.60
2019-02-10T23:23:09.847Z,6.60
2019-02-10T23:25:11.283Z,6.50
2019-02-10T23:27:12.655Z,6.60
2019-02-10T23:29:14.032Z,6.50
2019-02-10T23:31:15.469Z,6.60
2019-02-10T23:33:16.844Z,6.60
2019-02-10T23:35:18.263Z,6.50
2019-02-10T23:37:19.632Z,6.50
2019-02-10T23:39:21.020Z,6.50
2019-02-10T23:41:22.453Z,6.50
2019-02-10T23:43:23.843Z,6.50
2019-02-10T23:45:25.259Z,6.40
2019-02-10T23:47:27.049Z,6.50
2019-02-10T23:49:28.403Z,6.50
2019-02-10T23:51:29.792Z,6.50
2019-02-10T23:53:31.224Z,6.50
2019-02-10T23:55:32.595Z,6.50
2019-02-10T23:57:34.047Z,6.40
2019-02-10T23:59:35.454Z,6.50
